Terminal Aerodrome Forecast
Issued by NWS

Home | Current Version | Previous Version | Text Only | Print | Product List | Glossary On
Versions: 1 2 3 4 5 6 7 8 9 10 11 12 13 14 15 16
202
FTUS44 KCRP 221738
TAFLRD
TAF
KLRD 221738Z 2218/2318 14013KT P6SM SCT035
     FM222200 13015KT P6SM SCT025
     FM230900 12008KT P6SM OVC015
      TEMPO 2310/2314 BKN009
     FM231500 15014KT P6SM VCSH BKN025=

USA.gov is the U.S. government's official web portal to all federal, state and local government web resources and services.